Boise, ID (83705)

5:38 AM MST on December 18, 2014 (GMT -0700)
RAWS RAWS TRAINING FTS F6 403 ID US | Change Station
CLOSE
Current Station
Personal Weather Station
Location: Boise, ID
Elevation: 2869 ft
Nearby Weather Stations

Elev 2869 ft 43.56 °N, 116.21 °W | Updated 57 minutes ago

Overcast
Overcast
36 °F
Feels Like 36 °F
N
3
Wind Variable Wind from SW
Gusts 5.0 mph

Today
High -- | Low -- °F
--% Chance of Precip.
Yesterday
High -- | Low -- °F
Precip. -- in
8:13 AM 5:09 PM
Waning Crescent, 15% visible
Pressure 30.06 in
Visibility 10.0 miles
Clouds Overcast 8500 ft
Windchill 36 °F
Dew Point 33 °F
Humidity 88%
Rainfall 0.00 in
Snow Depth Not available.
UV 0 out of 12
Pollen .10 out of 12
Air Quality Not available.
Flu Activity Not available.
METAR KBOI 181153Z 19004KT 10SM OVC085 02/00 A3006

More Conditions Fewer Conditions

Pressure 30.06 in
Visibility 10.0 miles
Clouds Overcast 8500 ft
Windchill 36 °F
Dew Point 33 °F
Humidity 88%
Rainfall 0.00 in
Snow Depth Not available.
UV 0 out of 12
Pollen .10 out of 12
Air Quality Not available.
Flu Activity Not available.
METAR KBOI 181153Z 19004KT 10SM OVC085 02/00 A3006

More Conditions Fewer Conditions

10-Day Weather Forecast

Almanac

Astronomy

Dec. 18, 2014 Rise Set
Actual Time
Civil Twilight
Nautical Twilight
Astronomical Twilight
Moon
Length of Visible Light
Length of Day
Tomorrow will be .
, % of the Moon is Illuminated

Today's Extremes

State Highs State Lows

Community

WunderPhotos

Upload Photos

1,778,923 photos uploaded!

WunderBlogs® & News

Nearby

Air Quality

  Air Quality AQ Index Pollutant
Not available.

Snow Depth

Station Depth Elevation

Earthquake Activity

City Distance Mag. Time & Date
Minimum magnitude displayed is 2.5.

Coastal Water Temperatures

Place Temperature

Nearby Weather Stations